createdAt,value
2023-02-13T00:00:23.560Z,10.80
2023-02-13T00:02:50.477Z,10.80
2023-02-13T00:05:17.701Z,10.70
2023-02-13T00:07:44.572Z,10.70
2023-02-13T00:10:11.636Z,10.70
2023-02-13T00:12:38.599Z,10.80
2023-02-13T00:15:06.084Z,10.70
2023-02-13T00:17:33.137Z,10.70
2023-02-13T00:20:00.106Z,10.70
2023-02-13T00:22:27.338Z,10.70
2023-02-13T00:24:54.177Z,10.70
2023-02-13T00:27:20.980Z,10.70
2023-02-13T00:29:47.743Z,10.70
2023-02-13T00:32:15.196Z,10.70
2023-02-13T00:34:44.052Z,10.70
2023-02-13T00:37:10.995Z,10.70
2023-02-13T00:39:38.059Z,10.70
2023-02-13T00:42:05.428Z,10.70
2023-02-13T00:44:32.415Z,10.70
2023-02-13T00:47:01.261Z,10.70
2023-02-13T00:49:28.069Z,10.70
2023-02-13T00:51:54.937Z,10.70
2023-02-13T00:54:22.470Z,10.70
2023-02-13T00:56:49.519Z,10.70
2023-02-13T00:59:17.643Z,10.70
2023-02-13T01:01:44.695Z,10.70
2023-02-13T01:04:11.826Z,10.70
2023-02-13T01:06:38.623Z,10.70
2023-02-13T01:09:06.437Z,10.70
2023-02-13T01:11:35.770Z,10.70
2023-02-13T01:14:02.840Z,10.60
2023-02-13T01:16:29.778Z,10.60
2023-02-13T01:18:56.600Z,10.60
2023-02-13T01:21:24.405Z,10.60
2023-02-13T01:23:53.305Z,10.60
2023-02-13T01:26:23.306Z,10.60
2023-02-13T01:28:55.103Z,10.60
2023-02-13T01:31:22.745Z,10.60
2023-02-13T01:33:51.238Z,10.60
2023-02-13T01:36:21.778Z,10.60
2023-02-13T01:38:48.612Z,10.60
2023-02-13T01:41:15.787Z,10.50
2023-02-13T01:43:48.985Z,10.50
2023-02-13T01:46:20.877Z,10.60
2023-02-13T01:48:49.490Z,10.50
2023-02-13T01:51:25.666Z,10.50
2023-02-13T01:54:05.798Z,10.60
2023-02-13T01:56:35.961Z,10.50
2023-02-13T01:59:06.802Z,10.50
2023-02-13T02:01:34.561Z,10.50
2023-02-13T02:04:06.946Z,10.50
2023-02-13T02:06:38.460Z,10.50
2023-02-13T02:09:16.816Z,10.50
2023-02-13T02:12:11.158Z,10.50
2023-02-13T02:14:41.028Z,10.50
2023-02-13T02:17:11.311Z,10.50
2023-02-13T02:19:44.487Z,10.50
2023-02-13T02:22:44.962Z,10.50
2023-02-13T02:25:31.849Z,10.50
2023-02-13T02:28:22.194Z,10.50
2023-02-13T02:30:52.297Z,10.50
2023-02-13T02:33:49.819Z,10.40
2023-02-13T02:36:30.596Z,10.40
2023-02-13T02:39:14.077Z,10.50
2023-02-13T02:42:20.390Z,10.40
2023-02-13T02:45:11.375Z,10.40
2023-02-13T02:48:22.472Z,10.40
2023-02-13T02:51:07.470Z,10.40
2023-02-13T02:54:23.842Z,10.40
2023-02-13T02:56:54.029Z,10.40
2023-02-13T02:59:46.685Z,10.40
2023-02-13T03:02:33.832Z,10.40
2023-02-13T03:05:21.090Z,10.40
2023-02-13T03:07:48.959Z,10.40
2023-02-13T03:10:44.907Z,10.40
2023-02-13T03:13:28.660Z,10.40
2023-02-13T03:16:18.998Z,10.40
2023-02-13T03:19:09.944Z,10.40
2023-02-13T03:22:20.861Z,10.40
2023-02-13T03:25:06.088Z,10.40
2023-02-13T03:28:03.708Z,10.40
2023-02-13T03:30:50.437Z,10.40
2023-02-13T03:33:46.570Z,10.40
2023-02-13T03:36:45.153Z,10.40
2023-02-13T03:39:38.374Z,10.40
2023-02-13T03:42:10.195Z,10.40
2023-02-13T03:45:12.487Z,10.40
2023-02-13T03:47:40.938Z,10.40
2023-02-13T03:50:10.869Z,10.40
2023-02-13T03:52:37.690Z,10.40
2023-02-13T03:55:36.386Z,10.40
2023-02-13T03:58:32.582Z,10.40
2023-02-13T04:01:02.793Z,10.40
2023-02-13T04:03:34.158Z,10.40
2023-02-13T04:06:12.907Z,10.40
2023-02-13T04:08:39.933Z,10.40
2023-02-13T04:11:09.850Z,10.40
2023-02-13T04:13:43.505Z,10.40
2023-02-13T04:16:16.408Z,10.40
2023-02-13T04:18:44.115Z,10.40
2023-02-13T04:21:11.084Z,10.40
2023-02-13T04:23:37.955Z,10.40
2023-02-13T04:26:11.737Z,10.40
2023-02-13T04:28:38.642Z,10.40
2023-02-13T04:31:05.769Z,10.40
2023-02-13T04:33:32.865Z,10.40
2023-02-13T04:35:59.678Z,10.40
2023-02-13T04:38:26.513Z,10.40
2023-02-13T04:40:53.341Z,10.50
2023-02-13T04:43:20.156Z,10.50
2023-02-13T04:45:50.408Z,10.50
2023-02-13T04:48:17.724Z,10.40
2023-02-13T04:50:44.671Z,10.50
2023-02-13T04:53:11.481Z,10.50
2023-02-13T04:55:38.774Z,10.40
2023-02-13T04:58:05.673Z,10.50
2023-02-13T05:00:32.561Z,10.50
2023-02-13T05:03:11.321Z,10.40
2023-02-13T05:05:38.946Z,10.40
2023-02-13T05:08:07.373Z,10.50
2023-02-13T05:10:34.433Z,10.40
2023-02-13T05:13:01.656Z,10.50
2023-02-13T05:15:28.766Z,10.50
2023-02-13T05:17:55.767Z,10.50
2023-02-13T05:20:22.622Z,10.40
2023-02-13T05:23:11.117Z,10.40
2023-02-13T05:25:39.731Z,10.40
2023-02-13T05:28:27.418Z,10.40
2023-02-13T05:30:54.464Z,10.40
2023-02-13T05:33:21.493Z,10.40
2023-02-13T05:35:48.407Z,10.40
2023-02-13T05:38:15.380Z,10.40
2023-02-13T05:40:42.223Z,10.40
2023-02-13T05:43:09.112Z,10.40
2023-02-13T05:45:35.991Z,10.40
2023-02-13T05:48:02.921Z,10.40
2023-02-13T05:50:29.769Z,10.40
2023-02-13T05:52:56.600Z,10.40
2023-02-13T05:55:23.473Z,10.40
2023-02-13T05:57:50.322Z,10.40
2023-02-13T06:00:17.764Z,10.40
2023-02-13T06:02:44.685Z,10.40
2023-02-13T06:05:11.530Z,10.40
2023-02-13T06:07:38.365Z,10.40
2023-02-13T06:10:05.824Z,10.40
2023-02-13T06:12:32.694Z,10.40
2023-02-13T06:14:59.542Z,10.40
2023-02-13T06:17:26.387Z,10.40
2023-02-13T06:19:53.234Z,10.40
2023-02-13T06:22:20.140Z,10.40
2023-02-13T06:24:47.035Z,10.40
2023-02-13T06:27:13.888Z,10.40
2023-02-13T06:29:40.736Z,10.40
2023-02-13T06:32:07.531Z,10.40
2023-02-13T06:34:34.344Z,10.40
2023-02-13T06:37:01.231Z,10.40
2023-02-13T06:39:28.052Z,10.40
2023-02-13T06:41:54.928Z,10.40
2023-02-13T06:44:21.765Z,10.40
2023-02-13T06:46:48.592Z,10.40
2023-02-13T06:49:15.488Z,10.40
2023-02-13T06:51:42.333Z,10.40
2023-02-13T06:54:09.142Z,10.40
2023-02-13T06:56:36.560Z,10.40
2023-02-13T06:59:03.394Z,10.40
2023-02-13T07:01:30.258Z,10.40
2023-02-13T07:03:57.102Z,10.40
2023-02-13T07:06:23.961Z,10.40
2023-02-13T07:08:55.201Z,10.40
2023-02-13T07:11:24.410Z,10.40
2023-02-13T07:13:52.217Z,10.40
2023-02-13T07:16:19.407Z,10.50
2023-02-13T07:18:46.329Z,10.40
2023-02-13T07:21:13.245Z,10.50
2023-02-13T07:23:40.162Z,10.40
2023-02-13T07:26:07.281Z,10.40
2023-02-13T07:28:34.097Z,10.50
2023-02-13T07:31:05.840Z,10.50
2023-02-13T07:33:36.307Z,10.50
2023-02-13T07:36:03.984Z,10.50
2023-02-13T07:38:31.846Z,10.50
2023-02-13T07:41:00.189Z,10.50
2023-02-13T07:43:27.617Z,10.50
2023-02-13T07:45:58.406Z,10.50
2023-02-13T07:48:27.464Z,10.50
2023-02-13T07:50:55.211Z,10.60
2023-02-13T07:53:22.721Z,10.60
2023-02-13T07:55:49.573Z,10.60
2023-02-13T07:58:16.480Z,10.60
2023-02-13T08:00:43.360Z,10.60
2023-02-13T08:03:10.713Z,10.70
2023-02-13T08:05:37.792Z,10.70
2023-02-13T08:08:05.302Z,10.70
2023-02-13T08:10:50.572Z,10.80
2023-02-13T08:13:18.218Z,10.80
2023-02-13T08:15:45.169Z,10.80
2023-02-13T08:18:11.976Z,10.80
2023-02-13T08:20:38.915Z,10.90
2023-02-13T08:23:07.528Z,10.90
2023-02-13T08:25:34.570Z,10.90
2023-02-13T08:28:02.047Z,11.00
2023-02-13T08:30:29.156Z,11.00
2023-02-13T08:32:56.166Z,11.10
2023-02-13T08:35:26.653Z,11.10
2023-02-13T08:37:53.971Z,11.20
2023-02-13T08:40:23.512Z,11.20
2023-02-13T08:42:52.448Z,11.30
2023-02-13T08:45:19.292Z,11.30
2023-02-13T08:47:46.122Z,11.40
2023-02-13T08:50:13.010Z,11.40
2023-02-13T08:52:39.905Z,11.40
2023-02-13T08:55:06.866Z,11.50
2023-02-13T08:57:33.720Z,11.50
2023-02-13T09:00:00.579Z,11.60
2023-02-13T09:02:27.410Z,11.60
2023-02-13T09:04:54.275Z,11.70
2023-02-13T09:07:21.160Z,11.70
2023-02-13T09:09:48.159Z,11.80
2023-02-13T09:12:15.014Z,11.80
2023-02-13T09:14:41.891Z,11.90
2023-02-13T09:17:08.834Z,11.90
2023-02-13T09:19:35.691Z,12.00
2023-02-13T09:22:02.566Z,12.00
2023-02-13T09:24:29.470Z,12.00
2023-02-13T09:26:56.694Z,12.00
2023-02-13T09:29:23.922Z,12.10
2023-02-13T09:31:51.106Z,12.10
2023-02-13T09:34:18.246Z,12.10
2023-02-13T09:36:45.106Z,12.10
2023-02-13T09:39:11.933Z,12.20
2023-02-13T09:41:45.094Z,12.20
2023-02-13T09:44:42.170Z,12.20
2023-02-13T09:47:30.025Z,12.30
2023-02-13T09:50:28.376Z,12.30
2023-02-13T09:52:56.929Z,12.30
2023-02-13T09:55:31.301Z,12.40
2023-02-13T09:58:05.524Z,12.40
2023-02-13T10:00:39.978Z,12.40
2023-02-13T10:03:27.146Z,12.40
2023-02-13T10:06:04.828Z,12.50
2023-02-13T10:08:50.324Z,12.60
2023-02-13T10:11:54.851Z,12.60
2023-02-13T10:14:32.768Z,12.60
2023-02-13T10:17:11.651Z,12.70
2023-02-13T10:19:55.596Z,12.70
2023-02-13T10:22:29.614Z,12.70
2023-02-13T10:25:50.062Z,12.80
2023-02-13T10:29:10.948Z,12.80
2023-02-13T10:31:39.622Z,12.90
2023-02-13T10:34:12.716Z,13.00
2023-02-13T10:36:45.012Z,13.00
2023-02-13T10:39:24.125Z,13.10
2023-02-13T10:42:02.697Z,13.10
2023-02-13T10:44:32.488Z,13.20
2023-02-13T10:47:08.292Z,13.20
2023-02-13T10:49:53.167Z,13.20
2023-02-13T10:52:39.693Z,13.30
2023-02-13T10:55:41.830Z,13.30
2023-02-13T10:58:19.321Z,13.40
2023-02-13T11:00:52.429Z,13.40
2023-02-13T11:03:22.634Z,13.40
2023-02-13T11:05:50.550Z,13.50
2023-02-13T11:08:21.971Z,13.50
2023-02-13T11:10:49.581Z,13.60
2023-02-13T11:13:27.364Z,13.60
2023-02-13T11:16:10.349Z,13.70
2023-02-13T11:18:44.224Z,13.70
2023-02-13T11:21:17.075Z,13.80
2023-02-13T11:23:49.483Z,13.90
2023-02-13T11:26:32.876Z,13.90
2023-02-13T11:29:25.397Z,14.00
2023-02-13T11:32:08.057Z,14.10
2023-02-13T11:34:35.362Z,14.10
2023-02-13T11:37:17.615Z,14.10
2023-02-13T11:39:46.761Z,14.20
2023-02-13T11:42:21.740Z,14.20
2023-02-13T11:45:22.095Z,14.30
2023-02-13T11:47:49.760Z,14.40
2023-02-13T11:50:20.102Z,14.50
2023-02-13T11:53:00.412Z,14.50
2023-02-13T11:56:01.633Z,14.60
2023-02-13T11:58:30.977Z,14.70
2023-02-13T12:01:19.847Z,14.80
2023-02-13T12:04:17.340Z,14.80
2023-02-13T12:07:13.427Z,14.90
2023-02-13T12:09:42.009Z,15.00
2023-02-13T12:12:19.390Z,15.00
2023-02-13T12:14:46.860Z,15.10
2023-02-13T12:17:30.785Z,15.10
2023-02-13T12:19:58.965Z,15.20
2023-02-13T12:22:47.949Z,15.30
2023-02-13T12:25:45.975Z,15.40
2023-02-13T12:28:18.048Z,15.40
2023-02-13T12:31:14.027Z,15.50
2023-02-13T12:34:02.526Z,15.60
2023-02-13T12:36:50.428Z,15.70
2023-02-13T12:39:41.040Z,15.70
2023-02-13T12:42:19.854Z,15.80
2023-02-13T12:45:01.754Z,15.90
2023-02-13T12:47:48.735Z,16.00
2023-02-13T12:50:41.348Z,16.10
2023-02-13T12:53:13.326Z,16.20
2023-02-13T12:56:01.451Z,16.50
2023-02-13T12:58:31.046Z,16.90
2023-02-13T13:01:35.243Z,17.40
2023-02-13T13:04:30.291Z,18.20
2023-02-13T13:07:35.037Z,19.00
2023-02-13T13:10:28.452Z,19.70
2023-02-13T13:13:16.711Z,20.40
2023-02-13T13:15:58.724Z,21.00
2023-02-13T13:18:56.515Z,21.70
2023-02-13T13:21:29.081Z,22.20
2023-02-13T13:24:32.849Z,22.60
2023-02-13T13:27:02.258Z,23.00
2023-02-13T13:29:43.838Z,23.30
2023-02-13T13:32:19.868Z,23.50
2023-02-13T13:34:47.015Z,23.80
2023-02-13T13:37:26.518Z,24.10
2023-02-13T13:39:59.228Z,24.20
2023-02-13T13:42:39.188Z,24.50
2023-02-13T13:45:16.918Z,24.70
2023-02-13T13:48:02.370Z,24.80
2023-02-13T13:50:33.495Z,25.00
2023-02-13T13:53:16.098Z,25.20
2023-02-13T13:56:09.262Z,25.40
2023-02-13T13:58:41.120Z,25.50
2023-02-13T14:01:19.722Z,25.70
2023-02-13T14:03:48.394Z,25.80
2023-02-13T14:06:18.469Z,25.80
2023-02-13T14:08:45.380Z,25.70
2023-02-13T14:11:34.051Z,25.60
2023-02-13T14:14:02.086Z,25.20
2023-02-13T14:16:38.203Z,24.90
2023-02-13T14:19:06.954Z,24.40
2023-02-13T14:21:33.805Z,24.00
2023-02-13T14:24:04.433Z,23.60
2023-02-13T14:26:35.194Z,23.40
2023-02-13T14:29:11.132Z,23.40
2023-02-13T14:31:41.066Z,23.40
2023-02-13T14:34:14.464Z,23.60
2023-02-13T14:37:05.177Z,23.80
2023-02-13T14:39:41.392Z,23.90
2023-02-13T14:42:29.475Z,23.90
2023-02-13T14:44:58.605Z,23.60
2023-02-13T14:47:40.549Z,23.40
2023-02-13T14:50:15.172Z,23.20
2023-02-13T14:52:45.923Z,22.90
2023-02-13T14:55:20.524Z,22.60
2023-02-13T14:57:52.172Z,22.20
2023-02-13T15:00:28.326Z,21.90
2023-02-13T15:03:34.393Z,21.50
2023-02-13T15:06:05.651Z,21.10
2023-02-13T15:08:37.076Z,20.80
2023-02-13T15:11:04.198Z,20.60
2023-02-13T15:13:37.441Z,20.40
2023-02-13T15:16:08.839Z,20.20
2023-02-13T15:18:45.364Z,20.00
2023-02-13T15:21:18.476Z,19.80
2023-02-13T15:23:53.730Z,19.60
2023-02-13T15:26:24.020Z,19.40
2023-02-13T15:29:25.791Z,19.20
2023-02-13T15:31:54.077Z,19.00
2023-02-13T15:34:30.490Z,18.80
2023-02-13T15:36:57.742Z,18.60
2023-02-13T15:39:30.138Z,18.40
2023-02-13T15:42:02.610Z,18.30
2023-02-13T15:44:32.750Z,18.20
2023-02-13T15:47:09.040Z,18.10
2023-02-13T15:49:43.514Z,18.00
2023-02-13T15:52:32.410Z,18.00
2023-02-13T15:54:59.860Z,18.20
2023-02-13T15:57:27.738Z,18.50
2023-02-13T16:00:00.135Z,18.80
2023-02-13T16:02:40.220Z,19.00
2023-02-13T16:05:07.926Z,19.30
2023-02-13T16:07:54.479Z,19.50
2023-02-13T16:10:36.442Z,19.80
2023-02-13T16:13:06.468Z,20.00
2023-02-13T16:15:36.375Z,20.20
2023-02-13T16:18:06.190Z,20.30
2023-02-13T16:20:35.193Z,20.30
2023-02-13T16:23:07.990Z,20.30
2023-02-13T16:25:39.998Z,20.30
2023-02-13T16:28:09.877Z,20.20
2023-02-13T16:30:42.093Z,20.10
2023-02-13T16:33:14.925Z,19.90
2023-02-13T16:35:44.611Z,19.70
2023-02-13T16:38:49.869Z,19.50
2023-02-13T16:41:19.886Z,19.20
2023-02-13T16:43:51.868Z,18.80
2023-02-13T16:46:32.367Z,18.60
2023-02-13T16:48:59.251Z,18.30
2023-02-13T16:51:35.126Z,18.00
2023-02-13T16:54:10.969Z,17.70
2023-02-13T16:57:02.834Z,17.50
2023-02-13T16:59:35.654Z,17.20
2023-02-13T17:02:19.535Z,17.00
2023-02-13T17:04:59.799Z,16.70
2023-02-13T17:07:30.265Z,16.40
2023-02-13T17:10:19.937Z,16.30
2023-02-13T17:12:47.902Z,16.10
2023-02-13T17:15:17.956Z,15.90
2023-02-13T17:17:45.507Z,15.70
2023-02-13T17:20:18.281Z,15.60
2023-02-13T17:22:54.360Z,15.40
2023-02-13T17:25:27.550Z,15.30
2023-02-13T17:27:57.321Z,15.10
2023-02-13T17:30:26.780Z,15.00
2023-02-13T17:33:07.461Z,14.80
2023-02-13T17:35:35.422Z,14.70
2023-02-13T17:38:02.657Z,14.60
2023-02-13T17:40:31.301Z,14.50
2023-02-13T17:42:59.570Z,14.40
2023-02-13T17:45:29.141Z,14.30
2023-02-13T17:47:57.733Z,14.20
2023-02-13T17:50:29.535Z,14.10
2023-02-13T17:52:58.126Z,14.00
2023-02-13T17:55:26.939Z,13.90
2023-02-13T17:57:56.535Z,13.80
2023-02-13T18:00:25.312Z,13.70
2023-02-13T18:02:52.199Z,13.60
2023-02-13T18:05:20.048Z,13.60
2023-02-13T18:07:47.586Z,13.50
2023-02-13T18:10:17.375Z,13.40
2023-02-13T18:12:45.356Z,13.30
2023-02-13T18:15:12.951Z,13.20
2023-02-13T18:17:39.894Z,13.20
2023-02-13T18:20:08.283Z,13.10
2023-02-13T18:22:35.164Z,13.00
2023-02-13T18:25:02.426Z,12.90
2023-02-13T18:27:29.744Z,12.90
2023-02-13T18:29:57.157Z,12.80
2023-02-13T18:32:24.827Z,12.80
2023-02-13T18:34:51.697Z,12.70
2023-02-13T18:37:18.762Z,12.70
2023-02-13T18:39:45.774Z,12.60
2023-02-13T18:42:13.366Z,12.50
2023-02-13T18:44:41.312Z,12.50
2023-02-13T18:47:08.321Z,12.40
2023-02-13T18:49:35.140Z,12.40
2023-02-13T18:52:02.345Z,12.30
2023-02-13T18:54:29.344Z,12.30
2023-02-13T18:56:56.345Z,12.20
2023-02-13T18:59:23.562Z,12.20
2023-02-13T19:01:51.020Z,12.10
2023-02-13T19:04:17.912Z,12.10
2023-02-13T19:06:45.061Z,12.10
2023-02-13T19:09:12.354Z,12.00
2023-02-13T19:11:40.812Z,11.90
2023-02-13T19:14:08.159Z,11.90
2023-02-13T19:16:35.674Z,11.90
2023-02-13T19:19:05.899Z,11.80
2023-02-13T19:21:35.863Z,11.80
2023-02-13T19:24:04.629Z,11.70
2023-02-13T19:26:31.682Z,11.70
2023-02-13T19:28:58.974Z,11.60
2023-02-13T19:31:29.106Z,11.60
2023-02-13T19:33:56.803Z,11.60
2023-02-13T19:36:26.203Z,11.50
2023-02-13T19:38:59.106Z,11.50
2023-02-13T19:41:26.482Z,11.50
2023-02-13T19:43:53.689Z,11.40
2023-02-13T19:46:31.628Z,11.40
2023-02-13T19:48:59.191Z,11.40
2023-02-13T19:51:31.120Z,11.30
2023-02-13T19:54:05.876Z,11.30
2023-02-13T19:56:35.345Z,11.30
2023-02-13T19:59:02.528Z,11.20
2023-02-13T20:01:30.007Z,11.20
2023-02-13T20:03:57.310Z,11.10
2023-02-13T20:06:35.781Z,11.10
2023-02-13T20:09:06.956Z,11.10
2023-02-13T20:11:33.955Z,11.00
2023-02-13T20:14:00.954Z,11.00
2023-02-13T20:16:32.746Z,10.90
2023-02-13T20:19:07.521Z,10.90
2023-02-13T20:21:35.331Z,10.90
2023-02-13T20:24:05.488Z,10.80
2023-02-13T20:26:33.114Z,10.70
2023-02-13T20:29:00.949Z,10.70
2023-02-13T20:31:29.440Z,10.70
2023-02-13T20:33:56.616Z,10.60
2023-02-13T20:36:29.493Z,10.60
2023-02-13T20:39:01.567Z,10.60
2023-02-13T20:41:30.652Z,10.50
2023-02-13T20:44:03.466Z,10.50
2023-02-13T20:46:34.686Z,10.40
2023-02-13T20:49:02.062Z,10.40
2023-02-13T20:51:29.485Z,10.30
2023-02-13T20:53:56.935Z,10.30
2023-02-13T20:56:25.266Z,10.20
2023-02-13T20:58:55.047Z,10.20
2023-02-13T21:01:32.449Z,10.10
2023-02-13T21:03:59.880Z,10.00
2023-02-13T21:06:35.115Z,10.00
2023-02-13T21:09:03.532Z,9.90
2023-02-13T21:11:30.796Z,9.90
2023-02-13T21:13:58.211Z,9.80
2023-02-13T21:16:28.057Z,9.80
2023-02-13T21:18:58.444Z,9.80
2023-02-13T21:21:28.303Z,9.80
2023-02-13T21:23:56.956Z,9.80
2023-02-13T21:26:24.745Z,9.80
2023-02-13T21:28:52.143Z,9.80
2023-02-13T21:31:25.633Z,9.70
2023-02-13T21:33:52.806Z,9.60
2023-02-13T21:36:19.831Z,9.60
2023-02-13T21:38:46.706Z,9.50
2023-02-13T21:41:16.005Z,9.50
2023-02-13T21:43:46.684Z,9.40
2023-02-13T21:46:27.187Z,9.40
2023-02-13T21:48:59.409Z,9.30
2023-02-13T21:51:27.351Z,9.30
2023-02-13T21:53:55.081Z,9.20
2023-02-13T21:56:25.270Z,9.20
2023-02-13T21:58:53.221Z,9.10
2023-02-13T22:01:26.520Z,9.00
2023-02-13T22:03:57.927Z,9.00
2023-02-13T22:06:28.052Z,8.90
2023-02-13T22:09:04.682Z,8.90
2023-02-13T22:11:32.407Z,8.80
2023-02-13T22:14:04.116Z,8.80
2023-02-13T22:16:32.694Z,8.70
2023-02-13T22:19:00.368Z,8.70
2023-02-13T22:21:29.195Z,8.70
2023-02-13T22:23:56.166Z,8.60
2023-02-13T22:26:25.833Z,8.60
2023-02-13T22:28:54.201Z,8.60
2023-02-13T22:31:25.224Z,8.50
2023-02-13T22:34:03.030Z,8.50
2023-02-13T22:36:32.631Z,8.40
2023-02-13T22:38:59.567Z,8.40
2023-02-13T22:41:27.662Z,8.30
2023-02-13T22:43:54.856Z,8.30
2023-02-13T22:46:24.713Z,8.30
2023-02-13T22:48:52.467Z,8.20
2023-02-13T22:51:22.798Z,8.20
2023-02-13T22:53:52.478Z,8.10
2023-02-13T22:56:19.465Z,8.10
2023-02-13T22:58:46.274Z,8.00
2023-02-13T23:01:15.531Z,8.00
2023-02-13T23:03:42.691Z,7.90
2023-02-13T23:06:11.358Z,7.90
2023-02-13T23:08:39.059Z,7.80
2023-02-13T23:11:30.480Z,7.80
2023-02-13T23:13:57.689Z,7.80
2023-02-13T23:16:24.726Z,7.70
2023-02-13T23:18:57.004Z,7.70
2023-02-13T23:21:24.352Z,7.60
2023-02-13T23:23:51.296Z,7.60
2023-02-13T23:26:18.490Z,7.50
2023-02-13T23:28:45.510Z,7.50
2023-02-13T23:31:12.764Z,7.40
2023-02-13T23:33:39.697Z,7.40
2023-02-13T23:36:07.124Z,7.40
2023-02-13T23:38:33.976Z,7.40
2023-02-13T23:41:10.304Z,7.30
2023-02-13T23:43:37.182Z,7.30
2023-02-13T23:46:07.718Z,7.30
2023-02-13T23:48:34.947Z,7.20
2023-02-13T23:51:02.330Z,7.20
2023-02-13T23:53:29.312Z,7.20
2023-02-13T23:55:56.434Z,7.10
2023-02-13T23:58:23.461Z,7.10
